createdAt,value
2019-03-16T00:01:26.791Z,50.20
2019-03-16T00:03:54.262Z,50.20
2019-03-16T00:06:22.000Z,50.10
2019-03-16T00:08:49.459Z,50.20
2019-03-16T00:11:16.926Z,50.10
2019-03-16T00:13:44.388Z,50.20
2019-03-16T00:16:11.962Z,50.30
2019-03-16T00:18:39.425Z,50.40
2019-03-16T00:21:06.904Z,50.20
2019-03-16T00:23:34.346Z,50.20
2019-03-16T00:26:01.821Z,50.20
2019-03-16T00:28:29.285Z,50.10
2019-03-16T00:30:56.754Z,50.10
2019-03-16T00:33:24.218Z,50.10
2019-03-16T00:35:51.686Z,50.00
2019-03-16T00:38:19.153Z,50.00
2019-03-16T00:40:46.631Z,50.00
2019-03-16T00:43:14.093Z,49.90
2019-03-16T00:45:41.561Z,49.70
2019-03-16T00:48:09.034Z,49.60
2019-03-16T00:50:36.506Z,49.70
2019-03-16T00:53:03.968Z,49.80
2019-03-16T00:55:31.441Z,49.90
2019-03-16T00:57:58.922Z,50.00
2019-03-16T01:00:26.385Z,50.00
2019-03-16T01:02:53.852Z,50.00
2019-03-16T01:05:21.317Z,50.10
2019-03-16T01:07:48.791Z,50.20
2019-03-16T01:10:16.256Z,50.10
2019-03-16T01:12:43.716Z,50.10
2019-03-16T01:15:11.765Z,50.10
2019-03-16T01:17:39.225Z,50.00
2019-03-16T01:20:08.178Z,50.00
2019-03-16T01:22:35.645Z,49.90
2019-03-16T01:25:03.495Z,50.10
2019-03-16T01:27:30.953Z,50.00
2019-03-16T01:29:58.452Z,50.00
2019-03-16T01:32:25.937Z,50.10
2019-03-16T01:34:53.426Z,50.00
2019-03-16T01:37:20.909Z,49.90
2019-03-16T01:39:48.766Z,50.00
2019-03-16T01:42:16.230Z,50.20
2019-03-16T01:44:43.710Z,50.30
2019-03-16T01:47:11.166Z,50.10
2019-03-16T01:49:38.629Z,50.00
2019-03-16T01:52:06.102Z,49.90
2019-03-16T01:54:33.549Z,49.80
2019-03-16T01:57:01.021Z,49.80
2019-03-16T01:59:28.554Z,49.70
2019-03-16T02:01:56.021Z,49.50
2019-03-16T02:04:23.477Z,49.50
2019-03-16T02:06:50.949Z,49.50
2019-03-16T02:09:18.486Z,49.50
2019-03-16T02:11:45.961Z,49.50
2019-03-16T02:14:13.417Z,49.50
2019-03-16T02:16:40.885Z,49.50
2019-03-16T02:19:08.354Z,49.50
2019-03-16T02:21:35.840Z,49.70
2019-03-16T02:24:03.361Z,49.70
2019-03-16T02:26:30.827Z,49.60
2019-03-16T02:28:58.289Z,49.60
2019-03-16T02:31:25.759Z,49.50
2019-03-16T02:33:53.223Z,49.50
2019-03-16T02:36:20.684Z,49.50
2019-03-16T02:38:48.241Z,49.50
2019-03-16T02:41:15.763Z,49.50
2019-03-16T02:43:43.229Z,49.50
2019-03-16T02:46:10.694Z,49.50
2019-03-16T02:48:38.159Z,49.50
2019-03-16T02:51:05.698Z,49.50
2019-03-16T02:53:33.183Z,49.50
2019-03-16T02:56:00.715Z,49.50
2019-03-16T02:58:28.164Z,49.50
2019-03-16T03:00:55.634Z,49.50
2019-03-16T03:03:29.830Z,49.50
2019-03-16T03:05:52.302Z,49.40
2019-03-16T03:08:19.849Z,49.40
2019-03-16T03:10:47.338Z,49.30
2019-03-16T03:13:14.808Z,49.20
2019-03-16T03:15:42.298Z,49.20
2019-03-16T03:18:09.776Z,49.10
2019-03-16T03:20:37.249Z,49.10
2019-03-16T03:23:04.711Z,49.10
2019-03-16T03:25:32.193Z,49.10
2019-03-16T03:27:59.716Z,49.20
2019-03-16T03:30:27.190Z,49.20
2019-03-16T03:32:54.751Z,49.20
2019-03-16T03:35:22.263Z,49.30
2019-03-16T03:37:49.817Z,49.60
2019-03-16T03:40:17.289Z,49.50
2019-03-16T03:42:45.043Z,49.60
2019-03-16T03:45:12.875Z,49.50
2019-03-16T03:47:40.354Z,49.60
2019-03-16T03:50:08.778Z,50.20
2019-03-16T03:52:36.249Z,49.50
2019-03-16T03:55:04.900Z,49.50
2019-03-16T03:57:32.361Z,49.50
2019-03-16T03:59:59.838Z,49.50
2019-03-16T04:02:27.304Z,49.50
2019-03-16T04:04:54.764Z,49.50
2019-03-16T04:07:22.264Z,49.50
2019-03-16T04:09:50.184Z,49.40
2019-03-16T04:12:17.646Z,49.40
2019-03-16T04:14:45.112Z,49.30
2019-03-16T04:17:12.585Z,49.30
2019-03-16T04:19:40.037Z,49.50
2019-03-16T04:22:07.510Z,49.50
2019-03-16T04:24:34.981Z,49.50
2019-03-16T04:27:15.121Z,49.60
2019-03-16T04:29:31.638Z,50.10
2019-03-16T04:31:59.109Z,49.30
2019-03-16T04:34:29.649Z,49.50
2019-03-16T04:36:55.788Z,49.50
2019-03-16T04:39:23.258Z,49.40
2019-03-16T04:41:50.825Z,49.40
2019-03-16T04:44:18.282Z,49.40
2019-03-16T04:46:45.763Z,49.30
2019-03-16T04:49:13.228Z,49.30
2019-03-16T04:51:40.706Z,49.30
2019-03-16T04:54:08.179Z,49.40
2019-03-16T04:56:35.659Z,49.60
2019-03-16T04:59:03.114Z,49.60
2019-03-16T05:01:30.694Z,49.60
2019-03-16T05:03:58.153Z,49.50
2019-03-16T05:06:25.613Z,49.50
2019-03-16T05:08:53.093Z,49.50
2019-03-16T05:11:20.554Z,49.50
2019-03-16T05:13:48.021Z,49.50
2019-03-16T05:16:15.482Z,49.40
2019-03-16T05:18:42.955Z,49.30
2019-03-16T05:21:10.422Z,49.80
2019-03-16T05:23:37.986Z,49.20
2019-03-16T05:26:05.531Z,49.10
2019-03-16T05:28:33.004Z,49.00
2019-03-16T05:31:00.479Z,49.10
2019-03-16T05:33:27.971Z,49.20
2019-03-16T05:35:55.460Z,49.40
2019-03-16T05:38:22.918Z,49.40
2019-03-16T05:40:50.394Z,49.20
2019-03-16T05:43:17.847Z,49.80
2019-03-16T05:45:45.309Z,49.20
2019-03-16T05:48:12.782Z,49.10
2019-03-16T05:50:40.253Z,49.10
2019-03-16T05:53:07.729Z,49.10
2019-03-16T05:55:35.198Z,49.10
2019-03-16T05:58:02.666Z,49.10
2019-03-16T06:00:30.143Z,49.10
2019-03-16T06:02:57.609Z,49.10
2019-03-16T06:05:25.080Z,49.00
2019-03-16T06:07:52.551Z,49.10
2019-03-16T06:10:20.363Z,49.30
2019-03-16T06:12:47.862Z,49.40
2019-03-16T06:15:15.319Z,49.50
2019-03-16T06:17:42.793Z,49.50
2019-03-16T06:20:10.934Z,49.50
2019-03-16T06:22:38.409Z,49.50
2019-03-16T06:25:06.851Z,49.50
2019-03-16T06:27:34.315Z,49.40
2019-03-16T06:30:02.177Z,49.40
2019-03-16T06:32:29.672Z,49.30
2019-03-16T06:34:57.139Z,49.30
2019-03-16T06:37:24.607Z,49.20
2019-03-16T06:39:52.078Z,49.50
2019-03-16T06:42:19.549Z,49.60
2019-03-16T06:44:47.017Z,49.50
2019-03-16T06:47:14.550Z,49.70
2019-03-16T06:49:42.088Z,49.60
2019-03-16T06:52:09.557Z,49.60
2019-03-16T06:54:37.026Z,49.60
2019-03-16T06:57:04.521Z,49.60
2019-03-16T06:59:31.995Z,49.60
2019-03-16T07:01:59.459Z,49.60
2019-03-16T07:04:26.927Z,49.60
2019-03-16T07:06:54.393Z,49.60
2019-03-16T07:09:21.867Z,49.60
2019-03-16T07:11:49.345Z,49.60
2019-03-16T07:14:16.805Z,49.60
2019-03-16T07:16:44.274Z,49.80
2019-03-16T07:19:11.818Z,49.70
2019-03-16T07:21:39.605Z,49.70
2019-03-16T07:24:07.077Z,49.60
2019-03-16T07:26:34.541Z,49.70
2019-03-16T07:29:02.032Z,49.60
2019-03-16T07:31:29.494Z,49.60
2019-03-16T07:33:57.010Z,49.70
2019-03-16T07:36:24.468Z,49.80
2019-03-16T07:38:51.949Z,49.70
2019-03-16T07:41:19.438Z,49.60
2019-03-16T07:43:46.909Z,49.60
2019-03-16T07:46:14.396Z,49.60
2019-03-16T07:48:41.854Z,49.70
2019-03-16T07:51:09.318Z,49.70
2019-03-16T07:53:36.795Z,49.60
2019-03-16T07:56:04.257Z,49.60
2019-03-16T07:58:31.734Z,49.70
2019-03-16T08:00:59.197Z,49.80
2019-03-16T08:03:26.674Z,49.90
2019-03-16T08:05:54.190Z,49.80
2019-03-16T08:08:21.662Z,49.90
2019-03-16T08:10:49.121Z,49.90
2019-03-16T08:13:16.597Z,49.90
2019-03-16T08:15:44.066Z,49.90
2019-03-16T08:18:11.545Z,49.90
2019-03-16T08:20:39.008Z,50.20
2019-03-16T08:23:06.551Z,49.80
2019-03-16T08:25:34.045Z,49.70
2019-03-16T08:28:01.557Z,49.70
2019-03-16T08:30:29.046Z,49.70
2019-03-16T08:32:56.502Z,49.80
2019-03-16T08:36:48.398Z,49.90
2019-03-16T08:39:15.872Z,49.80
2019-03-16T08:41:43.433Z,49.80
2019-03-16T08:44:10.909Z,49.70
2019-03-16T08:46:38.373Z,49.70
2019-03-16T08:49:05.850Z,49.90
2019-03-16T08:51:33.322Z,49.90
2019-03-16T08:54:00.814Z,50.00
2019-03-16T08:56:28.292Z,50.60
2019-03-16T08:58:55.760Z,50.20
2019-03-16T09:01:23.254Z,51.10
2019-03-16T09:03:50.742Z,50.60
2019-03-16T09:06:18.208Z,50.50
2019-03-16T09:08:45.689Z,50.80
2019-03-16T09:11:13.175Z,50.80
2019-03-16T09:13:40.654Z,51.00
2019-03-16T09:16:08.112Z,51.10
2019-03-16T09:18:35.862Z,51.20
2019-03-16T09:21:03.334Z,51.60
2019-03-16T09:23:31.048Z,52.10
2019-03-16T09:25:58.522Z,52.30
2019-03-16T09:28:25.992Z,52.90
2019-03-16T09:30:56.322Z,53.80
2019-03-16T09:33:22.912Z,53.10
2019-03-16T09:35:50.605Z,53.50
2019-03-16T09:38:18.100Z,53.70
2019-03-16T09:40:45.590Z,53.70
2019-03-16T09:43:13.053Z,54.00
2019-03-16T09:45:40.847Z,54.00
2019-03-16T09:48:08.314Z,54.10
2019-03-16T09:50:35.777Z,54.30
2019-03-16T09:53:03.243Z,54.50
2019-03-16T09:55:30.709Z,54.50
2019-03-16T09:57:58.168Z,54.50
2019-03-16T10:00:25.649Z,54.60
2019-03-16T10:02:53.116Z,54.50
2019-03-16T10:05:20.612Z,54.60
2019-03-16T10:07:48.081Z,54.80
2019-03-16T10:10:15.590Z,54.70
2019-03-16T10:12:43.102Z,54.70
2019-03-16T10:15:11.123Z,54.80
2019-03-16T10:17:38.593Z,54.90
2019-03-16T10:20:09.606Z,54.80
2019-03-16T10:22:37.074Z,55.60
2019-03-16T10:25:04.821Z,54.90
2019-03-16T10:27:32.290Z,54.90
2019-03-16T10:29:59.766Z,55.00
2019-03-16T10:32:27.222Z,55.10
2019-03-16T10:34:54.782Z,55.10
2019-03-16T10:37:22.244Z,55.10
2019-03-16T10:39:52.895Z,55.30
2019-03-16T10:42:20.585Z,55.30
2019-03-16T10:44:48.302Z,55.40
2019-03-16T10:47:15.829Z,54.80
2019-03-16T10:49:43.459Z,55.20
2019-03-16T10:52:10.986Z,55.50
2019-03-16T10:54:38.457Z,55.40
2019-03-16T10:57:05.943Z,55.40
2019-03-16T10:59:33.406Z,55.40
2019-03-16T11:02:00.961Z,55.40
2019-03-16T11:04:28.421Z,55.50
2019-03-16T11:06:55.895Z,55.40
2019-03-16T11:09:23.348Z,55.50
2019-03-16T11:11:50.829Z,55.70
2019-03-16T11:14:18.302Z,55.60
2019-03-16T11:16:45.771Z,55.70
2019-03-16T11:19:13.230Z,55.60
2019-03-16T11:21:40.726Z,55.60
2019-03-16T11:24:08.296Z,55.70
2019-03-16T11:26:35.769Z,55.70
2019-03-16T11:29:08.985Z,55.90
2019-03-16T11:31:32.427Z,56.00
2019-03-16T11:33:59.898Z,56.00
2019-03-16T11:36:27.361Z,56.00
2019-03-16T11:38:54.888Z,56.00
2019-03-16T11:41:22.353Z,56.00
2019-03-16T11:43:49.813Z,56.00
2019-03-16T11:46:17.290Z,56.10
2019-03-16T11:48:44.753Z,56.10
2019-03-16T11:51:12.491Z,56.10
2019-03-16T11:53:39.992Z,56.10
2019-03-16T11:56:17.323Z,56.10
2019-03-16T11:58:36.651Z,56.10
2019-03-16T12:01:04.172Z,56.10
2019-03-16T12:03:31.631Z,56.10
2019-03-16T12:05:59.190Z,56.10
2019-03-16T12:08:26.667Z,56.10
2019-03-16T12:10:54.468Z,56.10
2019-03-16T12:13:21.953Z,56.10
2019-03-16T12:15:49.528Z,56.10
2019-03-16T12:18:16.993Z,56.10
2019-03-16T12:20:44.461Z,56.10
2019-03-16T12:23:11.934Z,56.10
2019-03-16T12:25:39.409Z,56.10
2019-03-16T12:28:06.884Z,56.10
2019-03-16T12:30:34.370Z,56.10
2019-03-16T12:33:01.885Z,56.10
2019-03-16T12:35:29.439Z,56.10
2019-03-16T12:37:56.959Z,56.10
2019-03-16T12:40:24.421Z,56.10
2019-03-16T12:42:51.900Z,56.10
2019-03-16T12:45:20.821Z,56.10
2019-03-16T12:47:48.718Z,56.20
2019-03-16T12:50:16.177Z,56.20
2019-03-16T12:52:43.648Z,56.20
2019-03-16T12:55:11.718Z,56.10
2019-03-16T12:57:39.203Z,56.10
2019-03-16T13:00:16.329Z,56.10
2019-03-16T13:02:43.811Z,56.10
2019-03-16T13:05:11.288Z,56.20
2019-03-16T13:07:38.778Z,56.10
2019-03-16T13:10:07.871Z,56.10
2019-03-16T13:12:35.365Z,56.10
2019-03-16T13:15:02.842Z,56.10
2019-03-16T13:17:30.309Z,56.10
2019-03-16T13:19:58.037Z,56.10
2019-03-16T13:22:25.519Z,56.10
2019-03-16T13:24:52.996Z,56.20
2019-03-16T13:27:20.463Z,56.10
2019-03-16T13:29:58.410Z,56.10
2019-03-16T13:32:17.134Z,56.10
2019-03-16T13:34:44.599Z,56.10
2019-03-16T13:37:12.088Z,56.10
2019-03-16T13:39:39.571Z,56.10
2019-03-16T13:42:07.147Z,56.20
2019-03-16T13:44:34.702Z,56.10
2019-03-16T13:47:05.174Z,56.10
2019-03-16T13:49:32.874Z,56.10
2019-03-16T13:52:00.369Z,56.20
2019-03-16T13:54:28.314Z,56.10
2019-03-16T13:56:55.790Z,56.10
2019-03-16T13:59:23.258Z,56.10
2019-03-16T14:01:50.743Z,56.10
2019-03-16T14:04:18.218Z,56.10
2019-03-16T14:06:45.699Z,56.20
2019-03-16T14:09:13.251Z,56.20
2019-03-16T14:11:41.601Z,56.10
2019-03-16T14:14:09.337Z,56.10
2019-03-16T14:16:37.016Z,56.10
2019-03-16T14:19:04.780Z,56.10
2019-03-16T14:21:32.595Z,56.10
2019-03-16T14:24:00.137Z,56.10
2019-03-16T14:26:27.630Z,56.10
2019-03-16T14:28:55.098Z,56.10
2019-03-16T14:31:22.563Z,56.10
2019-03-16T14:33:50.035Z,56.10
2019-03-16T14:36:17.558Z,56.10
2019-03-16T14:38:45.355Z,56.10
2019-03-16T14:41:12.885Z,56.10
2019-03-16T14:43:40.362Z,56.10
2019-03-16T14:46:07.810Z,56.10
2019-03-16T14:48:35.357Z,56.10
2019-03-16T14:51:02.827Z,56.10
2019-03-16T14:53:30.315Z,56.10
2019-03-16T14:55:57.784Z,56.10
2019-03-16T14:58:25.243Z,56.10
2019-03-16T15:00:52.705Z,56.10
2019-03-16T15:03:20.184Z,56.10
2019-03-16T15:05:47.661Z,55.70
2019-03-16T15:08:15.138Z,56.20
2019-03-16T15:10:42.612Z,56.10
2019-03-16T15:13:10.091Z,56.10
2019-03-16T15:15:37.566Z,56.10
2019-03-16T15:18:05.038Z,56.10
2019-03-16T15:20:32.509Z,56.20
2019-03-16T15:23:00.001Z,56.10
2019-03-16T15:25:27.457Z,56.20
2019-03-16T15:27:54.930Z,56.10
2019-03-16T15:30:22.405Z,56.10
2019-03-16T15:32:49.950Z,56.10
2019-03-16T15:35:17.414Z,56.10
2019-03-16T15:37:44.891Z,56.10
2019-03-16T15:40:12.851Z,56.10
2019-03-16T15:42:40.413Z,56.20
2019-03-16T15:45:09.512Z,56.10
2019-03-16T15:47:37.000Z,56.10
2019-03-16T15:50:05.123Z,56.80
2019-03-16T15:52:32.594Z,56.10
2019-03-16T15:55:00.065Z,56.10
2019-03-16T15:57:27.717Z,56.70
2019-03-16T15:59:55.182Z,56.70
2019-03-16T16:02:22.725Z,56.90
2019-03-16T16:04:50.185Z,56.20
2019-03-16T16:07:17.702Z,56.10
2019-03-16T16:09:45.173Z,56.00
2019-03-16T16:12:12.664Z,56.00
2019-03-16T16:14:40.113Z,56.00
2019-03-16T16:17:07.578Z,55.90
2019-03-16T16:19:35.054Z,55.80
2019-03-16T16:22:02.540Z,55.80
2019-03-16T16:24:30.112Z,55.90
2019-03-16T16:26:57.641Z,55.80
2019-03-16T16:29:25.152Z,55.80
2019-03-16T16:31:52.609Z,55.80
2019-03-16T16:34:20.082Z,55.80
2019-03-16T16:36:47.550Z,55.70
2019-03-16T16:39:15.027Z,55.70
2019-03-16T16:41:42.799Z,56.10
2019-03-16T16:44:10.265Z,55.80
2019-03-16T16:46:37.743Z,55.90
2019-03-16T16:49:05.216Z,55.80
2019-03-16T16:51:32.689Z,55.80
2019-03-16T16:54:00.155Z,55.90
2019-03-16T16:56:27.618Z,55.70
2019-03-16T16:58:55.092Z,55.80
2019-03-16T17:01:29.192Z,55.80
2019-03-16T17:03:52.062Z,55.80
2019-03-16T17:06:19.637Z,55.70
2019-03-16T17:08:47.102Z,55.70
2019-03-16T17:11:14.666Z,55.70
2019-03-16T17:13:42.147Z,55.60
2019-03-16T17:16:09.609Z,55.70
2019-03-16T17:18:37.074Z,55.80
2019-03-16T17:21:04.881Z,55.70
2019-03-16T17:23:32.368Z,55.70
2019-03-16T17:25:59.857Z,55.50
2019-03-16T17:28:27.465Z,55.60
2019-03-16T17:30:55.711Z,55.50
2019-03-16T17:33:23.191Z,55.50
2019-03-16T17:35:50.637Z,55.40
2019-03-16T17:38:18.133Z,55.50
2019-03-16T17:40:45.611Z,55.50
2019-03-16T17:43:13.070Z,55.40
2019-03-16T17:45:40.533Z,55.40
2019-03-16T17:48:08.007Z,55.40
2019-03-16T17:50:35.560Z,55.40
2019-03-16T17:53:03.034Z,55.30
2019-03-16T17:55:30.528Z,55.30
2019-03-16T17:57:58.069Z,55.20
2019-03-16T18:00:25.567Z,55.20
2019-03-16T18:02:53.031Z,55.20
2019-03-16T18:05:20.512Z,55.10
2019-03-16T18:07:47.976Z,55.10
2019-03-16T18:10:15.461Z,55.10
2019-03-16T18:12:42.941Z,55.10
2019-03-16T18:15:11.919Z,55.10
2019-03-16T18:17:39.514Z,55.20
2019-03-16T18:20:08.615Z,55.10
2019-03-16T18:22:36.082Z,55.10
2019-03-16T18:25:04.704Z,55.10
2019-03-16T18:27:32.212Z,55.00
2019-03-16T18:29:59.755Z,55.00
2019-03-16T18:32:27.234Z,55.00
2019-03-16T18:34:54.701Z,55.10
2019-03-16T18:37:22.177Z,55.00
2019-03-16T18:39:49.661Z,55.00
2019-03-16T18:42:17.126Z,55.00
2019-03-16T18:44:44.602Z,54.80
2019-03-16T18:47:12.067Z,55.10
2019-03-16T18:49:39.530Z,54.90
2019-03-16T18:52:06.994Z,54.90
2019-03-16T18:54:34.464Z,54.80
2019-03-16T18:57:01.934Z,54.80
2019-03-16T18:59:29.589Z,54.70
2019-03-16T19:01:57.176Z,55.30
2019-03-16T19:04:24.683Z,54.60
2019-03-16T19:06:52.146Z,54.60
2019-03-16T19:09:19.701Z,54.60
2019-03-16T19:11:47.179Z,55.10
2019-03-16T19:14:14.666Z,54.80
2019-03-16T19:16:42.173Z,54.80
2019-03-16T19:19:09.671Z,54.80
2019-03-16T19:21:37.129Z,54.70
2019-03-16T19:24:04.606Z,54.80
2019-03-16T19:26:32.078Z,54.80
2019-03-16T19:28:59.646Z,54.80
2019-03-16T19:31:27.113Z,54.50
2019-03-16T19:33:54.587Z,54.90
2019-03-16T19:36:22.054Z,54.90
2019-03-16T19:38:49.563Z,54.80
2019-03-16T19:41:17.053Z,54.70
2019-03-16T19:43:44.618Z,54.60
2019-03-16T19:46:12.498Z,54.60
2019-03-16T19:48:39.989Z,54.80
2019-03-16T19:51:07.463Z,54.70
2019-03-16T19:53:34.962Z,54.70
2019-03-16T19:56:02.462Z,54.60
2019-03-16T19:58:29.984Z,54.60
2019-03-16T20:00:57.444Z,54.60
2019-03-16T20:03:24.921Z,54.60
2019-03-16T20:05:52.453Z,54.60
2019-03-16T20:08:19.947Z,54.50
2019-03-16T20:10:47.419Z,54.60
2019-03-16T20:13:15.121Z,54.80
2019-03-16T20:15:43.882Z,55.00
2019-03-16T20:18:11.671Z,55.10
2019-03-16T20:20:39.148Z,55.10
2019-03-16T20:23:06.644Z,55.10
2019-03-16T20:25:34.121Z,55.10
2019-03-16T20:28:01.632Z,55.20
2019-03-16T20:30:29.098Z,55.30
2019-03-16T20:33:03.960Z,55.20
2019-03-16T20:35:26.870Z,55.20
2019-03-16T20:37:54.348Z,55.10
2019-03-16T20:40:21.822Z,55.00
2019-03-16T20:42:49.287Z,54.90
2019-03-16T20:45:16.921Z,55.20
2019-03-16T20:47:44.607Z,54.80
2019-03-16T20:50:18.441Z,54.70
2019-03-16T20:52:45.954Z,54.60
2019-03-16T20:55:13.594Z,54.60
2019-03-16T20:57:41.107Z,54.50
2019-03-16T21:00:12.980Z,54.50
2019-03-16T21:02:40.454Z,54.40
2019-03-16T21:05:08.716Z,54.30
2019-03-16T21:07:36.242Z,54.30
2019-03-16T21:10:04.177Z,54.20
2019-03-16T21:12:31.653Z,54.20
2019-03-16T21:14:59.160Z,54.30
2019-03-16T21:17:26.637Z,54.30
2019-03-16T21:19:54.094Z,54.20
2019-03-16T21:22:21.575Z,54.20
2019-03-16T21:24:49.154Z,54.30
2019-03-16T21:27:17.728Z,54.30
2019-03-16T21:29:45.298Z,54.10
2019-03-16T21:32:12.866Z,54.00
2019-03-16T21:34:40.324Z,53.90
2019-03-16T21:37:07.814Z,53.90
2019-03-16T21:39:35.278Z,53.80
2019-03-16T21:42:02.762Z,53.80
2019-03-16T21:44:30.307Z,53.70
2019-03-16T21:46:57.770Z,53.80
2019-03-16T21:49:25.257Z,53.40
2019-03-16T21:51:52.730Z,53.60
2019-03-16T21:54:20.202Z,53.50
2019-03-16T21:56:47.741Z,53.50
2019-03-16T21:59:15.298Z,53.60
2019-03-16T22:01:42.861Z,53.60
2019-03-16T22:04:10.319Z,53.60
2019-03-16T22:06:37.910Z,53.60
2019-03-16T22:09:05.839Z,53.50
2019-03-16T22:11:33.581Z,53.40
2019-03-16T22:14:01.345Z,53.30
2019-03-16T22:16:28.836Z,53.30
2019-03-16T22:18:56.292Z,53.30
2019-03-16T22:21:23.788Z,53.10
2019-03-16T22:23:51.250Z,53.10
2019-03-16T22:26:18.744Z,53.10
2019-03-16T22:28:46.209Z,53.10
2019-03-16T22:31:13.683Z,53.10
2019-03-16T22:33:49.941Z,53.10
2019-03-16T22:36:10.352Z,53.00
2019-03-16T22:38:37.818Z,53.00
2019-03-16T22:41:05.477Z,53.00
2019-03-16T22:43:32.932Z,53.10
2019-03-16T22:46:00.426Z,53.20
2019-03-16T22:48:27.877Z,53.30
2019-03-16T22:50:55.336Z,53.20
2019-03-16T22:53:22.869Z,53.20
2019-03-16T22:55:50.453Z,53.00
2019-03-16T22:58:17.930Z,52.90
2019-03-16T23:00:46.463Z,52.80
2019-03-16T23:03:13.932Z,52.70
2019-03-16T23:05:41.390Z,52.60
2019-03-16T23:08:08.856Z,52.60
2019-03-16T23:10:36.352Z,52.60
2019-03-16T23:13:03.814Z,52.50
2019-03-16T23:15:31.261Z,52.40
2019-03-16T23:17:58.737Z,52.90
2019-03-16T23:20:26.198Z,52.40
2019-03-16T23:22:53.656Z,52.50
2019-03-16T23:25:21.127Z,52.40
2019-03-16T23:27:48.618Z,52.40
2019-03-16T23:30:16.205Z,52.60
2019-03-16T23:32:43.670Z,52.70
2019-03-16T23:35:11.147Z,52.80
2019-03-16T23:37:38.609Z,53.20
2019-03-16T23:40:07.538Z,53.00
2019-03-16T23:42:35.029Z,52.90
2019-03-16T23:45:02.567Z,52.90
2019-03-16T23:47:30.054Z,53.00
2019-03-16T23:49:57.505Z,52.90
2019-03-16T23:52:25.053Z,52.90
2019-03-16T23:54:52.517Z,52.70
2019-03-16T23:57:19.980Z,52.70
2019-03-16T23:59:47.568Z,52.60
